Time;durP1;ratioP1;P1;durP2;ratioP2;P2;SDS_P1;SDS_P2;PMS_P1;PMS_P2;Temp;Humidity;BMP_temperature;BMP_pressure;BME280_temperature;BME280_humidity;BME280_pressure;Samples;Min_cycle;Max_cycle;Signal;HPM_P1;HPM_P2
2023/04/25 00:01:18;;;;;;;6.32;4.22;;;;;;;9.55;76.69;100010.53;4980029;28;20259;-80
2023/04/25 00:03:50;;;;;;;5.78;4.05;;;;;;;9.91;80.42;100009.91;4975836;28;20738;-82
2023/04/25 00:06:28;;;;;;;5.93;3.55;;;;;;;10.14;76.20;100010.13;4978673;28;20221;-80
2023/04/25 00:08:59;;;;;;;9.23;4.07;;;;;;;10.13;73.59;100018.44;4994055;28;20364;-82
2023/04/25 00:11:30;;;;;;;5.63;4.00;;;;;;;10.31;76.21;100010.44;4990047;28;20263;-79
2023/04/25 00:14:01;;;;;;;6.57;3.45;;;;;;;10.22;74.97;100003.63;5011960;28;20209;-84
2023/04/25 00:16:33;;;;;;;4.07;3.10;;;;;;;10.07;74.55;100011.25;5000940;28;20217;-80
2023/04/25 00:19:04;;;;;;;5.55;3.38;;;;;;;9.83;75.04;100008.28;4987636;28;20197;-81
2023/04/25 00:21:35;;;;;;;5.05;3.38;;;;;;;9.69;74.59;100012.13;4987433;28;20360;-79
2023/04/25 00:24:05;;;;;;;5.22;3.47;;;;;;;9.73;73.86;100007.94;4998059;28;20210;-79
2023/04/25 00:26:36;;;;;;;6.75;5.05;;;;;;;9.91;75.94;100008.03;4981541;28;20203;-79
2023/04/25 00:29:05;;;;;;;3.88;2.70;;;;;;;9.65;73.93;100005.50;4992546;28;20256;-82
2023/04/25 00:31:35;;;;;;;11.70;4.13;;;;;;;9.50;74.78;100004.97;4998915;28;20193;-81
2023/04/25 00:34:04;;;;;;;6.68;2.95;;;;;;;9.36;74.13;100003.38;5002125;28;20658;-81
2023/04/25 00:36:36;;;;;;;4.93;2.78;;;;;;;10.11;78.64;100004.34;4984747;28;20259;-82
2023/04/25 00:39:06;;;;;;;6.82;3.03;;;;;;;10.19;73.06;100007.63;4986282;28;20207;-82
2023/04/25 00:41:35;;;;;;;5.03;3.30;;;;;;;9.74;74.76;99998.78;4968357;29;20218;-81
2023/04/25 00:44:06;;;;;;;4.90;2.58;;;;;;;9.69;74.29;99998.59;4971457;28;20218;-81
2023/04/25 00:46:36;;;;;;;4.25;2.95;;;;;;;9.64;72.72;99997.59;4979552;28;20209;-83
2023/04/25 00:49:06;;;;;;;7.80;3.35;;;;;;;9.58;73.14;99994.72;4989972;28;20202;-82
2023/04/25 00:51:37;;;;;;;6.13;2.72;;;;;;;9.60;72.07;99995.34;4984950;28;20294;-81
2023/04/25 00:54:07;;;;;;;9.20;3.28;;;;;;;9.50;73.18;100002.25;4997675;28;20212;-80
2023/04/25 00:56:37;;;;;;;6.90;6.30;;;;;;;9.46;73.80;99990.25;4979053;28;20329;-82
2023/04/25 00:59:06;;;;;;;5.85;3.38;;;;;;;9.58;73.83;100004.72;5001959;28;20369;-79
2023/04/25 01:01:37;;;;;;;5.15;3.10;;;;;;;9.73;76.18;99996.31;4993375;28;20200;-84
2023/04/25 01:04:07;;;;;;;3.22;2.45;;;;;;;10.12;75.73;100000.59;4986954;28;20205;-82
2023/04/25 01:06:39;;;;;;;3.65;2.80;;;;;;;10.11;72.93;99990.81;4974134;28;20224;-82
2023/04/25 01:09:09;;;;;;;7.47;3.15;;;;;;;10.06;74.94;99993.38;4980528;28;20208;-82
2023/04/25 01:11:39;;;;;;;4.32;2.55;;;;;;;9.71;76.20;99983.03;4984541;28;20205;-80
2023/04/25 01:14:09;;;;;;;3.53;3.00;;;;;;;9.84;75.61;99982.09;4992137;28;20209;-82
2023/04/25 01:16:39;;;;;;;7.00;3.35;;;;;;;9.47;72.77;99983.81;4994989;28;20237;-85
2023/04/25 01:19:12;;;;;;;6.60;3.58;;;;;;;9.29;74.40;99978.31;4992607;28;20201;-83
2023/04/25 01:21:43;;;;;;;6.32;2.97;;;;;;;9.66;73.19;99979.31;4996324;28;20220;-83
2023/04/25 01:24:13;;;;;;;3.80;2.53;;;;;;;9.58;74.00;99977.72;4995444;28;20182;-85
2023/04/25 01:26:49;;;;;;;5.55;3.30;;;;;;;9.47;74.34;99975.69;4994496;28;20245;-84
2023/04/25 01:29:24;;;;;;;8.60;4.18;;;;;;;9.78;74.65;99980.28;5015135;28;20211;-81
2023/04/25 01:31:55;;;;;;;6.63;3.47;;;;;;;9.41;73.44;99979.25;5000127;28;20643;-81
2023/04/25 01:34:25;;;;;;;10.52;3.55;;;;;;;9.32;72.84;99977.84;5015314;28;20284;-81
2023/04/25 01:36:56;;;;;;;5.72;3.17;;;;;;;9.34;74.22;99981.19;4982964;28;20257;-79
2023/04/25 01:39:27;;;;;;;4.72;3.22;;;;;;;9.36;72.92;99979.91;4990533;28;20209;-80
2023/04/25 01:41:57;;;;;;;6.15;3.78;;;;;;;9.13;73.81;99977.75;5002124;28;20704;-82
2023/04/25 01:44:27;;;;;;;6.20;3.60;;;;;;;9.24;72.90;99972.72;4974649;28;20221;-82
2023/04/25 01:46:57;;;;;;;10.00;3.47;;;;;;;9.30;74.64;99975.38;4990431;28;20245;-81
2023/04/25 01:49:27;;;;;;;3.63;3.03;;;;;;;9.29;73.35;99973.75;4975187;28;20701;-82
2023/04/25 01:51:58;;;;;;;8.80;2.72;;;;;;;9.80;74.80;99970.91;4978216;28;20200;-79
2023/04/25 01:54:28;;;;;;;9.73;3.92;;;;;;;9.78;76.13;99978.38;4971288;28;20214;-81
2023/04/25 01:56:59;;;;;;;4.90;3.83;;;;;;;10.25;74.42;99978.88;4976748;28;20233;-81
2023/04/25 01:59:29;;;;;;;5.90;3.05;;;;;;;9.96;73.20;99980.34;4966828;28;20584;-82
2023/04/25 02:02:06;;;;;;;5.80;3.55;;;;;;;10.02;73.03;99985.69;4980594;28;20232;-80
2023/04/25 02:04:37;;;;;;;14.52;5.22;;;;;;;9.80;72.32;99992.50;4958570;28;20206;-80
2023/04/25 02:07:09;;;;;;;5.28;3.15;;;;;;;9.98;73.66;99983.63;4983731;28;20214;-81
2023/04/25 02:09:50;;;;;;;12.40;4.07;;;;;;;9.98;73.25;99984.47;4993610;28;20205;-81
2023/04/25 02:12:26;;;;;;;10.05;4.85;;;;;;;9.64;75.05;99976.00;4981180;28;20264;-80
2023/04/25 02:15:13;;;;;;;9.05;4.40;;;;;;;9.76;73.92;99985.06;4987299;28;20209;-81
2023/04/25 02:17:52;;;;;;;7.75;3.83;;;;;;;9.50;75.79;99981.47;4990274;28;20220;-81
2023/04/25 02:20:23;;;;;;;6.15;3.13;;;;;;;9.79;73.71;99979.22;4989778;28;20193;-80
2023/04/25 02:22:54;;;;;;;5.40;3.43;;;;;;;9.58;73.00;99981.22;4984492;28;20654;-80
2023/04/25 02:25:24;;;;;;;4.75;3.03;;;;;;;9.78;75.58;99989.19;4980502;28;20460;-79
2023/04/25 02:27:54;;;;;;;4.45;4.05;;;;;;;9.85;74.28;99983.75;4998381;28;20271;-80
2023/04/25 02:30:24;;;;;;;4.80;3.70;;;;;;;10.13;76.15;99986.84;4976571;28;20213;-79
2023/04/25 02:32:53;;;;;;;8.45;4.20;;;;;;;10.28;72.56;99978.41;4997879;28;20658;-80
2023/04/25 02:35:23;;;;;;;9.88;4.00;;;;;;;9.88;72.25;99983.28;4984586;28;20254;-78
2023/04/25 02:37:57;;;;;;;8.20;3.92;;;;;;;9.79;74.73;99982.75;4982080;28;20231;-80
2023/04/25 02:40:26;;;;;;;5.55;3.30;;;;;;;10.26;73.13;99980.53;4963921;28;20590;-82
2023/04/25 02:42:56;;;;;;;4.53;3.80;;;;;;;10.19;72.52;99975.19;5008174;28;20371;-79
2023/04/25 02:45:27;;;;;;;8.52;3.80;;;;;;;10.19;74.18;99974.34;5004325;28;20257;-81
2023/04/25 02:47:57;;;;;;;5.75;3.92;;;;;;;9.88;71.58;99981.44;4997861;28;20251;-78
2023/04/25 02:50:27;;;;;;;8.07;4.30;;;;;;;9.58;72.81;99980.41;4982880;28;20205;-81
2023/04/25 02:52:58;;;;;;;7.35;4.43;;;;;;;9.51;74.57;99976.91;4979960;28;20824;-80
2023/04/25 02:55:32;;;;;;;4.22;3.80;;;;;;;9.62;74.30;99981.63;4959893;28;20453;-78
2023/04/25 02:58:04;;;;;;;4.43;3.95;;;;;;;10.29;74.53;99980.09;4977201;28;20300;-80
2023/04/25 03:00:48;;;;;;;7.63;3.70;;;;;;;9.44;73.40;99981.53;4977448;28;20682;-80
2023/04/25 03:03:21;;;;;;;9.23;4.22;;;;;;;9.77;76.44;99987.56;4971974;28;20220;-78
2023/04/25 03:05:53;;;;;;;7.28;3.85;;;;;;;9.99;74.40;99983.44;4973551;28;20197;-78
2023/04/25 03:08:32;;;;;;;8.70;4.30;;;;;;;9.85;72.79;99975.63;4986734;28;20204;-78
2023/04/25 03:11:02;;;;;;;5.07;4.00;;;;;;;10.13;74.02;99981.44;4996774;28;20705;-80
2023/04/25 03:13:31;;;;;;;6.75;3.97;;;;;;;10.64;72.45;99986.59;4965109;28;20214;-82
2023/04/25 03:16:00;;;;;;;5.60;4.00;;;;;;;10.04;73.82;99980.88;4960605;28;20227;-79
2023/04/25 03:18:31;;;;;;;4.78;3.97;;;;;;;10.07;72.85;99982.31;4958472;29;20493;-80
2023/04/25 03:21:02;;;;;;;5.72;4.70;;;;;;;10.06;73.24;99975.28;4986526;28;20583;-81
2023/04/25 03:23:34;;;;;;;7.18;4.13;;;;;;;9.86;74.33;99983.53;4980092;28;20218;-80
2023/04/25 03:26:04;;;;;;;8.38;4.55;;;;;;;9.73;72.67;99980.91;4982557;28;20463;-81
2023/04/25 03:28:33;;;;;;;7.03;4.43;;;;;;;9.58;75.19;99983.91;4987772;28;20309;-82
2023/04/25 03:31:02;;;;;;;5.47;4.38;;;;;;;9.51;73.76;99982.31;4987220;28;20208;-81
2023/04/25 03:33:31;;;;;;;5.85;4.20;;;;;;;9.99;75.21;99988.84;4980419;28;20225;-79
2023/04/25 03:36:01;;;;;;;9.20;4.85;;;;;;;9.84;72.39;99982.91;4963648;29;20297;-80
2023/04/25 03:38:31;;;;;;;6.35;4.70;;;;;;;9.81;74.89;99977.97;4997278;28;20220;-81
2023/04/25 03:41:02;;;;;;;8.68;4.28;;;;;;;10.11;71.95;99983.56;4986322;28;20202;-83
2023/04/25 03:43:54;;;;;;;9.82;4.97;;;;;;;9.52;72.62;99984.81;4979790;28;20534;-82
2023/04/25 03:46:23;;;;;;;6.93;4.60;;;;;;;9.24;74.44;99987.06;4985637;28;20226;-81
2023/04/25 03:48:53;;;;;;;8.83;4.70;;;;;;;9.69;76.04;99990.50;5005684;28;20243;-82
2023/04/25 03:51:27;;;;;;;7.50;3.97;;;;;;;9.76;75.17;99985.91;5005077;28;20445;-82
2023/04/25 03:53:57;;;;;;;11.18;5.72;;;;;;;9.98;74.62;99995.28;5010437;28;20192;-78
2023/04/25 03:56:33;;;;;;;4.57;4.07;;;;;;;9.57;74.92;99987.69;5006038;28;20220;-83
2023/04/25 03:59:12;;;;;;;5.50;4.20;;;;;;;9.90;75.73;99992.03;4997421;28;20214;-80
2023/04/25 04:01:41;;;;;;;10.95;4.72;;;;;;;9.78;73.63;99991.09;4978535;28;20206;-81
2023/04/25 04:04:10;;;;;;;7.95;5.13;;;;;;;9.74;74.32;99996.06;4996875;28;20209;-81
2023/04/25 04:06:40;;;;;;;7.15;4.70;;;;;;;9.33;73.96;99995.72;4994067;28;20225;-78
2023/04/25 04:09:15;;;;;;;12.52;5.03;;;;;;;9.49;73.84;99993.31;4990951;28;20273;-80
2023/04/25 04:11:47;;;;;;;10.32;3.85;;;;;;;9.56;76.52;100001.41;4998837;28;20200;-81
2023/04/25 04:14:17;;;;;;;6.65;4.40;;;;;;;9.68;75.48;100006.94;4992633;28;20205;-78
2023/04/25 04:16:48;;;;;;;8.23;5.03;;;;;;;9.57;74.04;100003.06;4978614;28;20231;-80
2023/04/25 04:19:17;;;;;;;14.75;6.15;;;;;;;9.53;72.99;100009.94;5002004;28;20252;-82
2023/04/25 04:21:54;;;;;;;8.13;4.30;;;;;;;9.75;76.28;100015.81;5012427;28;20213;-79
2023/04/25 04:24:23;;;;;;;8.05;4.80;;;;;;;9.58;73.54;100026.34;4993087;28;20213;-80
2023/04/25 04:26:59;;;;;;;7.63;4.65;;;;;;;9.40;76.01;100018.09;4988200;28;20235;-82
2023/04/25 04:29:50;;;;;;;4.78;3.88;;;;;;;9.77;72.65;100017.28;5070063;23;20224;-84
2023/04/25 04:32:34;;;;;;;6.72;4.30;;;;;;;9.96;73.75;100029.81;5035618;28;20251;-83
2023/04/25 04:35:06;;;;;;;6.75;4.40;;;;;;;9.23;73.66;100016.94;5035546;28;20184;-84
2023/04/25 04:37:36;;;;;;;10.55;3.60;;;;;;;9.81;78.78;100023.91;5033748;28;20266;-84
2023/04/25 04:40:09;;;;;;;7.10;4.28;;;;;;;10.39;74.15;100031.78;5035105;28;20230;-84
2023/04/25 04:42:53;;;;;;;11.23;4.72;;;;;;;9.85;73.79;100025.09;5030221;28;20230;-82
2023/04/25 04:45:40;;;;;;;7.87;5.03;;;;;;;10.21;71.60;100023.63;5024025;28;20176;-83
2023/04/25 04:48:21;;;;;;;7.68;4.60;;;;;;;9.82;72.47;100033.66;5016863;28;20566;-83
2023/04/25 04:51:26;;;;;;;12.75;5.00;;;;;;;9.44;74.65;100040.97;5020176;28;20208;-83
2023/04/25 04:54:17;;;;;;;7.22;4.55;;;;;;;9.33;76.23;100033.53;5006113;28;20560;-83
2023/04/25 04:57:05;;;;;;;12.13;4.15;;;;;;;9.24;74.36;100034.81;5019280;28;20242;-83
2023/04/25 04:59:46;;;;;;;9.63;4.68;;;;;;;9.49;77.35;100033.00;5016331;28;20214;-82
2023/04/25 05:02:48;;;;;;;7.35;4.10;;;;;;;9.74;74.06;100033.91;5008737;28;20278;-85
2023/04/25 05:05:39;;;;;;;7.40;3.40;;;;;;;9.82;75.08;100032.84;5017842;28;20189;-82
2023/04/25 05:08:29;;;;;;;5.05;4.25;;;;;;;10.00;72.73;100041.00;5007118;28;20220;-83
2023/04/25 05:11:17;;;;;;;7.18;3.45;;;;;;;10.08;72.69;100048.00;5033197;28;20211;-82
2023/04/25 05:14:04;;;;;;;6.93;4.22;;;;;;;9.66;74.85;100044.97;5020783;28;20191;-84
2023/04/25 05:25:49;;;;;;;7.82;4.60;;;;;;;10.12;73.17;100041.16;5016539;28;20287;-83
2023/04/25 05:28:32;;;;;;;8.60;5.60;;;;;;;9.98;72.08;100040.41;5022162;28;20271;-84
2023/04/25 05:31:31;;;;;;;18.40;4.97;;;;;;;10.14;74.34;100041.75;5023290;28;20443;-83
2023/04/25 05:34:10;;;;;;;12.02;6.07;;;;;;;10.09;72.72;100045.09;5021082;28;20562;-83
2023/04/25 05:37:17;;;;;;;7.90;4.32;;;;;;;9.99;74.19;100045.59;5010543;28;20322;-83
2023/04/25 05:51:55;;;;;;;5.63;4.25;;;;;;;10.59;73.04;100066.78;5020145;28;20614;-83
2023/04/25 05:54:42;;;;;;;7.53;4.53;;;;;;;10.30;72.20;100063.69;5020958;28;20206;-83
2023/04/25 05:57:21;;;;;;;11.83;5.10;;;;;;;9.65;74.83;100067.63;5023374;28;20798;-82
2023/04/25 05:59:50;;;;;;;4.80;4.07;;;;;;;10.18;74.66;100065.44;5030530;28;20841;-83
2023/04/25 06:02:21;;;;;;;9.13;4.97;;;;;;;10.36;74.23;100065.50;5030449;28;20523;-81
2023/04/25 06:04:52;;;;;;;4.50;4.03;;;;;;;9.99;73.72;100067.22;5041494;28;20523;-81
2023/04/25 06:07:30;;;;;;;5.77;4.93;;;;;;;10.18;73.72;100068.16;5036539;28;20621;-83
2023/04/25 06:10:09;;;;;;;9.00;4.50;;;;;;;10.63;71.83;100074.22;5022215;28;20518;-83
2023/04/25 06:12:47;;;;;;;8.03;5.50;;;;;;;10.41;72.08;100070.25;5002090;28;20424;-82
2023/04/25 06:15:20;;;;;;;8.43;4.70;;;;;;;10.11;73.14;100070.06;5018856;28;20423;-84
2023/04/25 06:17:57;;;;;;;9.75;6.03;;;;;;;9.65;74.57;100083.00;5015166;28;20480;-87
2023/04/25 06:20:41;;;;;;;9.25;5.60;;;;;;;10.19;74.01;100082.50;5017777;28;20220;-85
2023/04/25 06:27:18;;;;;;;13.07;5.53;;;;;;;9.36;76.70;100090.63;5017131;28;20255;-83
2023/04/25 06:30:25;;;;;;;9.98;5.55;;;;;;;9.51;76.31;100074.13;5012707;28;20354;-82
2023/04/25 06:33:16;;;;;;;7.03;5.30;;;;;;;9.73;77.00;100088.19;5029935;28;20196;-83
2023/04/25 06:35:56;;;;;;;8.05;4.32;;;;;;;9.60;76.59;100089.06;5020378;28;20189;-90
2023/04/25 06:38:30;;;;;;;8.23;6.07;;;;;;;9.68;76.16;100080.72;5038748;28;20201;-88
2023/04/25 06:43:51;;;;;;;10.43;5.53;;;;;;;9.97;75.76;100085.50;5037860;28;20176;-84
2023/04/25 06:46:38;;;;;;;11.00;5.97;;;;;;;10.01;75.96;100084.06;5029295;28;20291;-81
2023/04/25 06:49:08;;;;;;;11.53;5.10;;;;;;;9.53;76.36;100086.41;5020795;28;20234;-82
2023/04/25 06:51:40;;;;;;;6.97;5.20;;;;;;;9.70;77.47;100084.00;5021653;28;20454;-83
2023/04/25 06:54:27;;;;;;;9.35;6.47;;;;;;;9.80;77.07;100099.75;5024895;28;20207;-85
2023/04/25 06:57:05;;;;;;;10.05;5.68;;;;;;;9.31;77.93;100090.41;5034862;28;20273;-85
2023/04/25 06:59:34;;;;;;;22.10;5.88;;;;;;;9.33;77.84;100091.06;5017988;28;20227;-85
2023/04/25 07:02:05;;;;;;;9.30;5.88;;;;;;;9.90;77.83;100094.72;5034413;28;20227;-82
2023/04/25 07:04:35;;;;;;;10.77;6.55;;;;;;;9.61;77.53;100090.72;5033859;28;20193;-83
2023/04/25 07:07:04;;;;;;;10.98;5.82;;;;;;;9.27;79.96;100099.16;5016656;28;20964;-80
2023/04/25 07:09:41;;;;;;;11.60;7.00;;;;;;;9.23;79.27;100097.94;5017343;28;20629;-80
2023/04/25 07:12:13;;;;;;;12.70;6.00;;;;;;;9.43;79.52;100112.19;5016570;28;20189;-81
2023/04/25 07:14:43;;;;;;;7.60;5.50;;;;;;;9.21;80.37;100105.41;5016084;28;20215;-81
2023/04/25 07:17:13;;;;;;;8.95;5.97;;;;;;;9.52;79.24;100105.50;5018507;28;20200;-86
2023/04/25 07:19:49;;;;;;;9.18;5.10;;;;;;;9.59;79.13;100104.44;5023810;28;20513;-83
2023/04/25 07:22:18;;;;;;;7.90;4.13;;;;;;;9.58;77.83;100107.38;5029222;28;20252;-81
2023/04/25 07:24:50;;;;;;;7.20;3.85;;;;;;;9.41;76.90;100116.97;5019574;28;20200;-81
2023/04/25 07:27:22;;;;;;;10.20;5.45;;;;;;;9.31;77.71;100122.00;5020641;28;20241;-80
2023/04/25 07:29:57;;;;;;;10.55;4.68;;;;;;;9.47;77.02;100132.34;5012009;28;20204;-82
2023/04/25 07:32:27;;;;;;;11.25;4.80;;;;;;;9.37;75.87;100126.56;5017228;28;20204;-81
2023/04/25 07:34:58;;;;;;;11.73;5.35;;;;;;;9.41;75.29;100139.41;5015927;28;20197;-84
2023/04/25 07:37:28;;;;;;;4.47;3.88;;;;;;;9.44;73.94;100127.38;5016236;28;20200;-83
2023/04/25 07:40:26;;;;;;;11.93;4.90;;;;;;;9.50;74.26;100126.50;5037088;28;20215;-82
2023/04/25 07:43:16;;;;;;;10.20;5.13;;;;;;;9.45;73.11;100137.94;5017581;28;20197;-83
2023/04/25 07:46:03;;;;;;;23.77;6.43;;;;;;;9.55;73.31;100134.78;5009867;28;20197;-82
2023/04/25 07:51:29;;;;;;;9.77;4.65;;;;;;;9.96;72.94;100150.63;5036723;28;20175;-83
2023/04/25 07:54:02;;;;;;;14.25;4.15;;;;;;;9.87;71.40;100147.34;5035596;28;20714;-82
2023/04/25 07:56:32;;;;;;;15.38;4.75;;;;;;;9.82;71.07;100144.44;5048872;28;20195;-80
2023/04/25 07:59:21;;;;;;;9.40;3.53;;;;;;;9.90;69.52;100155.00;5013958;28;20204;-78
2023/04/25 08:01:50;;;;;;;9.07;4.55;;;;;;;10.08;68.43;100161.56;5016011;28;20281;-79
2023/04/25 08:04:22;;;;;;;11.82;5.03;;;;;;;9.64;67.71;100165.91;5034167;28;20258;-82
2023/04/25 08:07:00;;;;;;;12.10;4.80;;;;;;;9.75;68.63;100164.41;5014782;28;20202;-81
2023/04/25 08:09:35;;;;;;;10.83;3.43;;;;;;;10.41;67.48;100165.72;5013787;28;20222;-80
2023/04/25 08:12:08;;;;;;;17.52;4.78;;;;;;;10.47;65.09;100169.44;5012752;28;20997;-79
2023/04/25 08:14:40;;;;;;;12.07;4.97;;;;;;;11.00;64.94;100179.84;5011804;28;20215;-79
2023/04/25 08:17:10;;;;;;;10.60;3.97;;;;;;;10.43;65.35;100176.34;5008493;28;20200;-79
2023/04/25 08:19:44;;;;;;;12.47;3.40;;;;;;;10.26;66.07;100178.72;5010942;28;20462;-78
2023/04/25 08:22:23;;;;;;;17.73;4.88;;;;;;;10.06;66.65;100188.81;5011767;28;20666;-79
2023/04/25 08:25:11;;;;;;;13.82;4.68;;;;;;;10.80;65.93;100186.25;5010467;28;20202;-82
2023/04/25 08:27:46;;;;;;;11.23;3.97;;;;;;;11.25;62.30;100186.91;5027144;28;20209;-79
2023/04/25 08:30:17;;;;;;;7.40;4.30;;;;;;;10.69;61.89;100192.41;5005329;28;20525;-80
2023/04/25 08:32:47;;;;;;;23.53;5.57;;;;;;;10.73;62.79;100192.78;5028202;28;20713;-80
2023/04/25 08:35:49;;;;;;;7.20;3.90;;;;;;;10.85;61.69;100202.66;5010067;28;20475;-80
2023/04/25 08:38:19;;;;;;;9.20;4.37;;;;;;;10.85;61.12;100207.25;5030363;28;20539;-79
2023/04/25 08:40:52;;;;;;;7.43;4.07;;;;;;;10.39;61.01;100210.28;5023802;28;20476;-83
2023/04/25 08:43:27;;;;;;;8.10;3.80;;;;;;;10.59;59.46;100213.69;5031780;28;20451;-80
2023/04/25 08:46:00;;;;;;;9.07;4.87;;;;;;;10.82;58.42;100208.53;5039762;28;20300;-80
2023/04/25 08:48:59;;;;;;;8.43;3.45;;;;;;;11.69;57.00;100209.34;5016918;28;20563;-79
2023/04/25 08:51:31;;;;;;;5.53;3.57;;;;;;;12.05;54.84;100208.53;5012684;28;20193;-81
2023/04/25 08:54:10;;;;;;;12.77;3.83;;;;;;;12.31;53.55;100212.75;5013299;28;20467;-80
2023/04/25 08:57:03;;;;;;;10.30;3.50;;;;;;;12.43;54.25;100228.06;5007893;28;20414;-79
2023/04/25 08:59:37;;;;;;;6.40;2.93;;;;;;;11.99;51.84;100220.28;4995981;28;20447;-79
2023/04/25 09:02:14;;;;;;;13.90;3.30;;;;;;;11.30;52.62;100218.72;5021990;28;20449;-79
2023/04/25 09:04:45;;;;;;;10.30;2.80;;;;;;;10.49;52.20;100229.59;5012590;28;20494;-78
2023/04/25 09:07:20;;;;;;;5.23;2.20;;;;;;;10.31;53.20;100221.38;5030865;28;20526;-78
2023/04/25 09:09:51;;;;;;;13.40;4.07;;;;;;;10.38;53.84;100224.84;5018605;28;20467;-80
2023/04/25 09:12:27;;;;;;;8.73;3.73;;;;;;;10.27;53.21;100233.66;5014120;28;21058;-80
2023/04/25 09:15:10;;;;;;;9.20;4.25;;;;;;;10.10;53.55;100224.34;5020173;28;20440;-79
2023/04/25 09:17:55;;;;;;;8.88;4.10;;;;;;;11.10;52.36;100237.03;5021109;28;20319;-79
2023/04/25 09:20:27;;;;;;;10.90;3.80;;;;;;;11.08;51.49;100239.16;5022353;28;20212;-79
2023/04/25 09:23:19;;;;;;;14.67;3.30;;;;;;;11.39;51.31;100238.22;5018348;28;20464;-80
2023/04/25 09:25:54;;;;;;;6.23;3.00;;;;;;;11.41;50.05;100255.94;5018420;28;20818;-80
2023/04/25 09:28:27;;;;;;;12.73;3.90;;;;;;;11.33;49.69;100254.31;5020404;28;21022;-80
2023/04/25 09:31:06;;;;;;;15.57;4.90;;;;;;;11.07;51.27;100248.31;5056204;28;20471;-81
2023/04/25 09:33:45;;;;;;;7.80;2.87;;;;;;;11.12;52.99;100248.47;5029513;28;20449;-81
2023/04/25 09:36:19;;;;;;;10.80;3.93;;;;;;;11.35;51.65;100251.38;5023695;28;20446;-79
2023/04/25 09:39:24;;;;;;;11.20;2.50;;;;;;;10.97;49.37;100242.56;5007912;28;20431;-80
2023/04/25 09:42:04;;;;;;;5.70;3.03;;;;;;;10.44;47.99;100253.75;5014081;28;20439;-79
2023/04/25 09:44:45;;;;;;;5.33;2.20;;;;;;;10.73;47.61;100266.69;5031387;28;20404;-80
2023/04/25 09:47:23;;;;;;;7.27;2.63;;;;;;;10.43;47.87;100269.13;5016164;28;20447;-79
2023/04/25 09:49:58;;;;;;;11.77;3.07;;;;;;;10.80;46.85;100269.31;5015644;28;20461;-80
2023/04/25 09:52:30;;;;;;;9.20;3.20;;;;;;;11.21;47.05;100255.28;5012596;28;20403;-79
2023/04/25 09:55:24;;;;;;;7.00;3.00;;;;;;;11.45;45.80;100272.56;5011240;28;20946;-79
2023/04/25 09:58:02;;;;;;;8.40;3.27;;;;;;;12.58;47.59;100274.59;5015165;28;20462;-80
2023/04/25 10:00:36;;;;;;;5.63;2.10;;;;;;;13.01;43.42;100265.41;5011707;28;20448;-80
2023/04/25 10:03:23;;;;;;;9.57;2.50;;;;;;;11.85;44.17;100268.44;5032864;28;21025;-81
2023/04/25 10:06:23;;;;;;;7.10;2.77;;;;;;;11.38;44.64;100286.16;5017837;28;20415;-81
2023/04/25 10:08:55;;;;;;;4.40;2.10;;;;;;;11.42;45.66;100262.19;5019833;28;20455;-80
2023/04/25 10:11:32;;;;;;;9.67;2.53;;;;;;;11.96;45.37;100277.66;5023396;28;20413;-80
2023/04/25 10:14:13;;;;;;;8.03;3.10;;;;;;;11.67;44.83;100277.31;5020234;28;20502;-76
2023/04/25 10:16:43;;;;;;;9.10;3.43;;;;;;;11.56;43.78;100269.94;5013910;28;20803;-77
2023/04/25 10:19:24;;;;;;;7.00;2.37;;;;;;;11.61;44.66;100282.84;5021246;28;20824;-76
2023/04/25 10:21:57;;;;;;;11.30;3.37;;;;;;;12.01;43.95;100277.81;5008876;28;20466;-78
2023/04/25 10:24:28;;;;;;;15.73;3.63;;;;;;;11.87;43.85;100279.03;5015935;28;20422;-79
2023/04/25 10:26:58;;;;;;;11.73;3.03;;;;;;;11.40;45.04;100275.09;5015026;28;20959;-78
2023/04/25 10:29:28;;;;;;;5.60;2.10;;;;;;;11.73;45.04;100270.22;5014467;28;20717;-78
2023/04/25 10:31:57;;;;;;;8.30;2.80;;;;;;;11.75;43.60;100274.38;5018162;28;20423;-78
2023/04/25 10:34:40;;;;;;;5.20;4.07;;;;;;;11.99;45.06;100290.78;5017607;28;21037;-77
2023/04/25 10:37:13;;;;;;;4.50;2.50;;;;;;;12.46;43.25;100286.44;5017554;28;20481;-80
2023/04/25 10:39:43;;;;;;;8.20;3.47;;;;;;;12.91;46.04;100289.56;5032146;28;20435;-81
2023/04/25 10:42:13;;;;;;;6.93;2.90;;;;;;;12.94;42.66;100289.09;5033086;28;20536;-81
2023/04/25 10:45:01;;;;;;;8.17;3.23;;;;;;;12.28;43.67;100284.59;5027979;28;20468;-80
2023/04/25 10:47:37;;;;;;;4.43;2.20;;;;;;;12.54;42.60;100295.09;5024547;28;20402;-79
2023/04/25 10:50:10;;;;;;;9.20;2.23;;;;;;;12.41;42.61;100284.44;5029916;28;20456;-81
2023/04/25 10:52:40;;;;;;;6.80;2.70;;;;;;;12.40;43.87;100299.03;5034530;28;20475;-81
2023/04/25 10:55:10;;;;;;;5.37;2.33;;;;;;;12.22;41.43;100292.81;5034871;28;20425;-80
2023/04/25 10:57:40;;;;;;;5.13;2.40;;;;;;;12.43;41.36;100304.03;5031361;28;20443;-78
2023/04/25 11:00:21;;;;;;;7.23;3.03;;;;;;;12.58;41.07;100296.31;5015724;28;20414;-79
2023/04/25 11:03:00;;;;;;;7.93;2.70;;;;;;;12.97;41.50;100296.81;5003670;28;20448;-76
2023/04/25 11:05:34;;;;;;;15.27;3.50;;;;;;;12.78;40.26;100295.22;5010528;28;20783;-78
2023/04/25 11:08:33;;;;;;;9.10;3.03;;;;;;;11.98;42.94;100314.38;5011250;28;20430;-77
2023/04/25 11:11:03;;;;;;;6.33;3.03;;;;;;;10.84;44.41;100336.31;5012789;28;20450;-78
2023/04/25 11:13:32;;;;;;;5.13;2.73;;;;;;;10.51;45.43;100335.69;5016884;28;20401;-78
2023/04/25 11:16:01;;;;;;;9.50;2.30;;;;;;;10.48;45.85;100325.31;5014266;28;20410;-77
2023/04/25 11:18:43;;;;;;;10.47;2.83;;;;;;;10.26;46.17;100338.28;5000368;28;20480;-79
2023/04/25 11:21:14;;;;;;;9.37;2.63;;;;;;;10.56;46.03;100335.88;5016989;28;20402;-78
2023/04/25 11:23:46;;;;;;;9.20;2.87;;;;;;;10.96;45.20;100333.78;5016900;28;20437;-78
2023/04/25 11:26:16;;;;;;;12.33;3.30;;;;;;;10.76;44.47;100335.75;5016442;28;20479;-79
2023/04/25 11:28:47;;;;;;;7.30;2.03;;;;;;;10.96;44.25;100339.19;5070668;23;20466;-82
2023/04/25 11:31:16;;;;;;;4.80;2.10;;;;;;;11.27;43.06;100341.06;5026913;28;20406;-80
2023/04/25 11:33:45;;;;;;;4.83;2.60;;;;;;;11.85;44.40;100338.09;5029704;28;20420;-81
2023/04/25 11:36:16;;;;;;;8.00;2.20;;;;;;;12.34;42.01;100348.81;5014344;28;20439;-79
2023/04/25 11:38:46;;;;;;;7.40;2.30;;;;;;;11.97;41.23;100347.13;5016928;28;20476;-82
2023/04/25 11:41:15;;;;;;;4.90;2.77;;;;;;;11.91;41.45;100354.25;5019542;28;20427;-81
2023/04/25 11:43:45;;;;;;;4.80;2.57;;;;;;;11.75;40.67;100357.56;5022710;28;20470;-81
2023/04/25 11:46:14;;;;;;;9.03;2.63;;;;;;;11.68;41.90;100352.16;5028204;28;20463;-81
2023/04/25 11:48:45;;;;;;;12.83;2.57;;;;;;;11.79;40.56;100355.22;5022463;28;20559;-81
2023/04/25 11:51:15;;;;;;;4.40;1.87;;;;;;;11.05;41.75;100364.94;5015862;28;20500;-79
2023/04/25 11:53:46;;;;;;;3.97;2.33;;;;;;;10.92;42.64;100358.78;5018470;28;20462;-80
2023/04/25 11:56:15;;;;;;;4.77;3.10;;;;;;;10.96;42.91;100363.56;5016481;28;20433;-82
2023/04/25 11:59:02;;;;;;;3.00;2.07;;;;;;;10.99;43.85;100365.00;5025603;28;20422;-80
2023/04/25 12:01:33;;;;;;;9.70;1.93;;;;;;;11.14;42.76;100369.06;5018900;28;20440;-81
2023/04/25 12:04:14;;;;;;;9.40;2.50;;;;;;;11.81;44.19;100353.97;5023468;28;20440;-79
2023/04/25 12:06:48;;;;;;;2.53;1.93;;;;;;;12.46;42.96;100363.25;5034269;28;20432;-82
2023/04/25 12:09:21;;;;;;;6.57;2.57;;;;;;;11.64;42.04;100375.34;5025563;28;20449;-82
2023/04/25 12:11:56;;;;;;;7.30;3.07;;;;;;;11.21;42.62;100369.00;5014382;28;20443;-83
2023/04/25 12:14:28;;;;;;;5.67;2.50;;;;;;;11.05;43.12;100369.53;5018076;28;20400;-82
2023/04/25 12:17:00;;;;;;;4.97;1.80;;;;;;;10.99;43.79;100375.84;5018970;28;20524;-81
2023/04/25 12:19:35;;;;;;;6.17;1.80;;;;;;;10.69;43.36;100378.28;5017866;28;20438;-82
2023/04/25 12:22:19;;;;;;;5.60;1.67;;;;;;;11.00;42.99;100375.59;5016883;28;20444;-81
2023/04/25 12:24:48;;;;;;;9.20;2.60;;;;;;;11.60;44.10;100379.56;5027279;28;21058;-81
2023/04/25 12:27:19;;;;;;;10.20;2.60;;;;;;;11.66;41.83;100378.69;5020223;28;20436;-82
2023/04/25 12:29:56;;;;;;;8.17;2.60;;;;;;;12.00;43.20;100374.63;5017187;28;20408;-80
2023/04/25 12:32:26;;;;;;;2.60;2.30;;;;;;;12.17;40.18;100385.72;5042648;28;20430;-81
2023/04/25 12:34:55;;;;;;;4.17;2.27;;;;;;;12.08;40.72;100381.63;5025018;28;20512;-83
2023/04/25 12:37:26;;;;;;;4.97;2.23;;;;;;;11.73;40.08;100367.78;5028661;28;20415;-78